sensor_id;sensor_type;location;lat;lon;timestamp;P1;durP1;ratioP1;P2;durP2;ratioP2
73898;SDS011;62234;50.892;12.724;2024-02-15T00:00:09;0.80;;;0.80;;
73898;SDS011;62234;50.892;12.724;2024-02-15T00:02:35;0.52;;;0.52;;
73898;SDS011;62234;50.892;12.724;2024-02-15T00:05:01;0.60;;;0.50;;
73898;SDS011;62234;50.892;12.724;2024-02-15T00:07:27;0.90;;;0.57;;
73898;SDS011;62234;50.892;12.724;2024-02-15T00:09:53;0.80;;;0.77;;
73898;SDS011;62234;50.892;12.724;2024-02-15T00:12:19;0.55;;;0.50;;
73898;SDS011;62234;50.892;12.724;2024-02-15T00:14:45;0.80;;;0.60;;
73898;SDS011;62234;50.892;12.724;2024-02-15T00:17:11;0.75;;;0.70;;
73898;SDS011;62234;50.892;12.724;2024-02-15T00:19:37;1.10;;;0.40;;
73898;SDS011;62234;50.892;12.724;2024-02-15T00:22:05;1.13;;;0.70;;
73898;SDS011;62234;50.892;12.724;2024-02-15T00:24:31;0.57;;;0.47;;
73898;SDS011;62234;50.892;12.724;2024-02-15T00:26:57;1.25;;;0.73;;
73898;SDS011;62234;50.892;12.724;2024-02-15T00:29:22;0.45;;;0.40;;
73898;SDS011;62234;50.892;12.724;2024-02-15T00:31:49;0.40;;;0.40;;
73898;SDS011;62234;50.892;12.724;2024-02-15T00:34:15;0.60;;;0.50;;
73898;SDS011;62234;50.892;12.724;2024-02-15T00:36:44;0.73;;;0.70;;
73898;SDS011;62234;50.892;12.724;2024-02-15T00:39:11;0.85;;;0.80;;
73898;SDS011;62234;50.892;12.724;2024-02-15T00:41:38;0.43;;;0.40;;
73898;SDS011;62234;50.892;12.724;2024-02-15T00:44:07;0.70;;;0.30;;
73898;SDS011;62234;50.892;12.724;2024-02-15T00:46:33;0.70;;;0.70;;
73898;SDS011;62234;50.892;12.724;2024-02-15T00:48:59;0.63;;;0.55;;
73898;SDS011;62234;50.892;12.724;2024-02-15T00:51:25;0.57;;;0.50;;
73898;SDS011;62234;50.892;12.724;2024-02-15T00:53:51;0.57;;;0.57;;
73898;SDS011;62234;50.892;12.724;2024-02-15T00:56:17;0.80;;;0.70;;
73898;SDS011;62234;50.892;12.724;2024-02-15T00:58:43;1.20;;;0.40;;
73898;SDS011;62234;50.892;12.724;2024-02-15T01:01:09;0.50;;;0.50;;
73898;SDS011;62234;50.892;12.724;2024-02-15T01:03:36;0.70;;;0.40;;
73898;SDS011;62234;50.892;12.724;2024-02-15T01:06:03;0.70;;;0.40;;
73898;SDS011;62234;50.892;12.724;2024-02-15T01:08:30;0.85;;;0.45;;
73898;SDS011;62234;50.892;12.724;2024-02-15T01:10:56;2.17;;;0.60;;
73898;SDS011;62234;50.892;12.724;2024-02-15T01:13:22;0.75;;;0.60;;
73898;SDS011;62234;50.892;12.724;2024-02-15T01:15:48;1.00;;;0.47;;
73898;SDS011;62234;50.892;12.724;2024-02-15T01:18:15;0.80;;;0.43;;
73898;SDS011;62234;50.892;12.724;2024-02-15T01:20:40;0.68;;;0.50;;
73898;SDS011;62234;50.892;12.724;2024-02-15T01:23:06;0.50;;;0.50;;
73898;SDS011;62234;50.892;12.724;2024-02-15T01:25:33;0.52;;;0.38;;
73898;SDS011;62234;50.892;12.724;2024-02-15T01:27:58;0.98;;;0.68;;
73898;SDS011;62234;50.892;12.724;2024-02-15T01:30:26;0.50;;;0.50;;
73898;SDS011;62234;50.892;12.724;2024-02-15T01:32:53;1.05;;;0.40;;
73898;SDS011;62234;50.892;12.724;2024-02-15T01:35:19;0.45;;;0.45;;
73898;SDS011;62234;50.892;12.724;2024-02-15T01:37:45;0.38;;;0.30;;
73898;SDS011;62234;50.892;12.724;2024-02-15T01:40:11;1.10;;;0.30;;
73898;SDS011;62234;50.892;12.724;2024-02-15T01:42:38;0.52;;;0.45;;
73898;SDS011;62234;50.892;12.724;2024-02-15T01:45:04;0.50;;;0.40;;
73898;SDS011;62234;50.892;12.724;2024-02-15T01:47:31;0.40;;;0.40;;
73898;SDS011;62234;50.892;12.724;2024-02-15T01:49:57;0.40;;;0.40;;
73898;SDS011;62234;50.892;12.724;2024-02-15T01:52:23;0.50;;;0.50;;
73898;SDS011;62234;50.892;12.724;2024-02-15T01:54:52;0.70;;;0.60;;
73898;SDS011;62234;50.892;12.724;2024-02-15T01:57:19;0.38;;;0.38;;
73898;SDS011;62234;50.892;12.724;2024-02-15T01:59:46;0.50;;;0.50;;
73898;SDS011;62234;50.892;12.724;2024-02-15T02:02:12;0.70;;;0.68;;
73898;SDS011;62234;50.892;12.724;2024-02-15T02:04:40;1.33;;;0.60;;
73898;SDS011;62234;50.892;12.724;2024-02-15T02:07:06;0.80;;;0.80;;
73898;SDS011;62234;50.892;12.724;2024-02-15T02:09:33;0.95;;;0.75;;
73898;SDS011;62234;50.892;12.724;2024-02-15T02:11:59;0.60;;;0.52;;
73898;SDS011;62234;50.892;12.724;2024-02-15T02:14:25;0.75;;;0.60;;
73898;SDS011;62234;50.892;12.724;2024-02-15T02:16:51;1.02;;;0.50;;
73898;SDS011;62234;50.892;12.724;2024-02-15T02:19:17;0.85;;;0.47;;
73898;SDS011;62234;50.892;12.724;2024-02-15T02:21:43;0.80;;;0.80;;
73898;SDS011;62234;50.892;12.724;2024-02-15T02:24:13;0.88;;;0.47;;
73898;SDS011;62234;50.892;12.724;2024-02-15T02:26:39;1.05;;;0.60;;
73898;SDS011;62234;50.892;12.724;2024-02-15T02:29:06;0.70;;;0.70;;
73898;SDS011;62234;50.892;12.724;2024-02-15T02:31:32;0.45;;;0.45;;
73898;SDS011;62234;50.892;12.724;2024-02-15T02:33:59;1.20;;;0.65;;
73898;SDS011;62234;50.892;12.724;2024-02-15T02:36:25;0.30;;;0.30;;
73898;SDS011;62234;50.892;12.724;2024-02-15T02:38:51;0.60;;;0.60;;
73898;SDS011;62234;50.892;12.724;2024-02-15T02:41:17;0.45;;;0.40;;
73898;SDS011;62234;50.892;12.724;2024-02-15T02:43:48;0.50;;;0.50;;
73898;SDS011;62234;50.892;12.724;2024-02-15T02:46:14;0.98;;;0.65;;
73898;SDS011;62234;50.892;12.724;2024-02-15T02:48:40;0.70;;;0.57;;
73898;SDS011;62234;50.892;12.724;2024-02-15T02:51:06;0.40;;;0.40;;
73898;SDS011;62234;50.892;12.724;2024-02-15T02:53:32;0.50;;;0.50;;
73898;SDS011;62234;50.892;12.724;2024-02-15T02:55:58;0.40;;;0.40;;
73898;SDS011;62234;50.892;12.724;2024-02-15T02:58:25;0.43;;;0.43;;
73898;SDS011;62234;50.892;12.724;2024-02-15T03:00:51;0.50;;;0.43;;
73898;SDS011;62234;50.892;12.724;2024-02-15T03:03:17;0.75;;;0.70;;
73898;SDS011;62234;50.892;12.724;2024-02-15T03:05:47;0.35;;;0.35;;
73898;SDS011;62234;50.892;12.724;2024-02-15T03:08:14;0.80;;;0.70;;
73898;SDS011;62234;50.892;12.724;2024-02-15T03:10:42;0.77;;;0.55;;
73898;SDS011;62234;50.892;12.724;2024-02-15T03:13:08;0.50;;;0.50;;
73898;SDS011;62234;50.892;12.724;2024-02-15T03:15:34;0.47;;;0.47;;
73898;SDS011;62234;50.892;12.724;2024-02-15T03:18:00;0.70;;;0.70;;
73898;SDS011;62234;50.892;12.724;2024-02-15T03:20:31;0.65;;;0.43;;
73898;SDS011;62234;50.892;12.724;2024-02-15T03:22:58;0.60;;;0.60;;
73898;SDS011;62234;50.892;12.724;2024-02-15T03:25:25;1.42;;;0.60;;
73898;SDS011;62234;50.892;12.724;2024-02-15T03:27:52;0.50;;;0.50;;
73898;SDS011;62234;50.892;12.724;2024-02-15T03:30:18;1.08;;;0.65;;
73898;SDS011;62234;50.892;12.724;2024-02-15T03:32:45;1.23;;;0.50;;
73898;SDS011;62234;50.892;12.724;2024-02-15T03:35:13;0.55;;;0.52;;
73898;SDS011;62234;50.892;12.724;2024-02-15T03:37:39;0.75;;;0.75;;
73898;SDS011;62234;50.892;12.724;2024-02-15T03:40:06;0.70;;;0.70;;
73898;SDS011;62234;50.892;12.724;2024-02-15T03:42:33;0.80;;;0.77;;
73898;SDS011;62234;50.892;12.724;2024-02-15T03:45:01;0.60;;;0.55;;
73898;SDS011;62234;50.892;12.724;2024-02-15T03:47:27;1.02;;;0.50;;
73898;SDS011;62234;50.892;12.724;2024-02-15T03:49:54;1.85;;;0.70;;
73898;SDS011;62234;50.892;12.724;2024-02-15T03:52:21;0.68;;;0.68;;
73898;SDS011;62234;50.892;12.724;2024-02-15T03:54:47;0.45;;;0.45;;
73898;SDS011;62234;50.892;12.724;2024-02-15T03:57:12;0.63;;;0.55;;
73898;SDS011;62234;50.892;12.724;2024-02-15T03:59:42;0.80;;;0.50;;
73898;SDS011;62234;50.892;12.724;2024-02-15T04:02:08;0.88;;;0.75;;
73898;SDS011;62234;50.892;12.724;2024-02-15T04:04:39;1.00;;;0.75;;
73898;SDS011;62234;50.892;12.724;2024-02-15T04:07:07;0.47;;;0.45;;
73898;SDS011;62234;50.892;12.724;2024-02-15T04:09:33;0.38;;;0.38;;
73898;SDS011;62234;50.892;12.724;2024-02-15T04:12:00;0.52;;;0.52;;
73898;SDS011;62234;50.892;12.724;2024-02-15T04:14:26;1.88;;;0.52;;
73898;SDS011;62234;50.892;12.724;2024-02-15T04:16:53;0.30;;;0.30;;
73898;SDS011;62234;50.892;12.724;2024-02-15T04:19:18;0.45;;;0.45;;
73898;SDS011;62234;50.892;12.724;2024-02-15T04:21:45;0.55;;;0.43;;
73898;SDS011;62234;50.892;12.724;2024-02-15T04:24:12;0.40;;;0.40;;
73898;SDS011;62234;50.892;12.724;2024-02-15T04:26:38;1.02;;;0.60;;
73898;SDS011;62234;50.892;12.724;2024-02-15T04:29:04;0.50;;;0.50;;
73898;SDS011;62234;50.892;12.724;2024-02-15T04:31:32;0.77;;;0.77;;
73898;SDS011;62234;50.892;12.724;2024-02-15T04:34:01;0.80;;;0.63;;
73898;SDS011;62234;50.892;12.724;2024-02-15T04:36:28;0.70;;;0.45;;
73898;SDS011;62234;50.892;12.724;2024-02-15T04:38:59;0.63;;;0.50;;
73898;SDS011;62234;50.892;12.724;2024-02-15T04:41:29;0.70;;;0.70;;
73898;SDS011;62234;50.892;12.724;2024-02-15T04:43:55;0.80;;;0.50;;
73898;SDS011;62234;50.892;12.724;2024-02-15T04:46:21;0.98;;;0.38;;
73898;SDS011;62234;50.892;12.724;2024-02-15T04:48:48;0.40;;;0.40;;
73898;SDS011;62234;50.892;12.724;2024-02-15T04:51:17;0.60;;;0.60;;
73898;SDS011;62234;50.892;12.724;2024-02-15T04:53:44;0.68;;;0.55;;
73898;SDS011;62234;50.892;12.724;2024-02-15T04:56:11;1.30;;;0.90;;
73898;SDS011;62234;50.892;12.724;2024-02-15T04:58:42;0.50;;;0.50;;
73898;SDS011;62234;50.892;12.724;2024-02-15T05:01:15;2.20;;;1.00;;
73898;SDS011;62234;50.892;12.724;2024-02-15T05:03:42;1.33;;;0.70;;
73898;SDS011;62234;50.892;12.724;2024-02-15T05:06:08;1.27;;;0.80;;
73898;SDS011;62234;50.892;12.724;2024-02-15T05:08:35;0.82;;;0.50;;
73898;SDS011;62234;50.892;12.724;2024-02-15T05:11:03;0.85;;;0.82;;
73898;SDS011;62234;50.892;12.724;2024-02-15T05:13:30;1.05;;;0.60;;
73898;SDS011;62234;50.892;12.724;2024-02-15T05:15:56;1.85;;;0.85;;
73898;SDS011;62234;50.892;12.724;2024-02-15T05:18:22;1.40;;;0.82;;
73898;SDS011;62234;50.892;12.724;2024-02-15T05:20:48;0.88;;;0.88;;
73898;SDS011;62234;50.892;12.724;2024-02-15T05:23:14;0.93;;;0.80;;
73898;SDS011;62234;50.892;12.724;2024-02-15T05:25:43;0.60;;;0.60;;
73898;SDS011;62234;50.892;12.724;2024-02-15T05:28:09;0.90;;;0.70;;
73898;SDS011;62234;50.892;12.724;2024-02-15T05:30:35;1.50;;;1.15;;
73898;SDS011;62234;50.892;12.724;2024-02-15T05:33:02;1.55;;;0.70;;
73898;SDS011;62234;50.892;12.724;2024-02-15T05:35:28;1.02;;;1.00;;
73898;SDS011;62234;50.892;12.724;2024-02-15T05:37:54;1.20;;;0.80;;
73898;SDS011;62234;50.892;12.724;2024-02-15T05:40:21;0.70;;;0.70;;
73898;SDS011;62234;50.892;12.724;2024-02-15T05:42:47;3.42;;;1.00;;
73898;SDS011;62234;50.892;12.724;2024-02-15T05:45:28;1.35;;;0.80;;
73898;SDS011;62234;50.892;12.724;2024-02-15T05:47:57;1.27;;;1.17;;
73898;SDS011;62234;50.892;12.724;2024-02-15T05:50:23;1.13;;;0.82;;
73898;SDS011;62234;50.892;12.724;2024-02-15T05:52:52;1.15;;;1.05;;
73898;SDS011;62234;50.892;12.724;2024-02-15T05:55:19;2.78;;;1.75;;
73898;SDS011;62234;50.892;12.724;2024-02-15T05:57:45;1.23;;;1.10;;
73898;SDS011;62234;50.892;12.724;2024-02-15T06:00:12;1.50;;;1.25;;
73898;SDS011;62234;50.892;12.724;2024-02-15T06:02:40;1.20;;;1.10;;
73898;SDS011;62234;50.892;12.724;2024-02-15T06:05:06;1.17;;;0.98;;
73898;SDS011;62234;50.892;12.724;2024-02-15T06:07:32;1.73;;;1.23;;
73898;SDS011;62234;50.892;12.724;2024-02-15T06:09:59;1.75;;;1.17;;
73898;SDS011;62234;50.892;12.724;2024-02-15T06:12:28;2.40;;;1.25;;
73898;SDS011;62234;50.892;12.724;2024-02-15T06:14:54;1.83;;;1.33;;
73898;SDS011;62234;50.892;12.724;2024-02-15T06:17:20;1.70;;;1.38;;
73898;SDS011;62234;50.892;12.724;2024-02-15T06:19:46;1.83;;;1.48;;
73898;SDS011;62234;50.892;12.724;2024-02-15T06:22:12;1.42;;;1.23;;
73898;SDS011;62234;50.892;12.724;2024-02-15T06:24:38;2.10;;;1.45;;
73898;SDS011;62234;50.892;12.724;2024-02-15T06:27:04;1.90;;;1.48;;
73898;SDS011;62234;50.892;12.724;2024-02-15T06:29:31;1.98;;;1.77;;
73898;SDS011;62234;50.892;12.724;2024-02-15T06:32:15;1.65;;;1.33;;
73898;SDS011;62234;50.892;12.724;2024-02-15T06:35:00;1.98;;;1.70;;
73898;SDS011;62234;50.892;12.724;2024-02-15T06:37:44;2.65;;;2.00;;
73898;SDS011;62234;50.892;12.724;2024-02-15T06:40:29;1.77;;;1.60;;
73898;SDS011;62234;50.892;12.724;2024-02-15T06:42:55;1.95;;;1.75;;
73898;SDS011;62234;50.892;12.724;2024-02-15T06:45:22;2.38;;;1.63;;
73898;SDS011;62234;50.892;12.724;2024-02-15T06:47:49;2.15;;;1.55;;
73898;SDS011;62234;50.892;12.724;2024-02-15T06:50:15;2.38;;;1.70;;
73898;SDS011;62234;50.892;12.724;2024-02-15T06:52:42;6.32;;;2.03;;
73898;SDS011;62234;50.892;12.724;2024-02-15T06:55:08;2.65;;;2.20;;
73898;SDS011;62234;50.892;12.724;2024-02-15T06:57:36;3.20;;;2.17;;
73898;SDS011;62234;50.892;12.724;2024-02-15T07:00:03;2.45;;;2.03;;
73898;SDS011;62234;50.892;12.724;2024-02-15T07:02:33;3.67;;;2.28;;
73898;SDS011;62234;50.892;12.724;2024-02-15T07:04:59;2.38;;;1.65;;
73898;SDS011;62234;50.892;12.724;2024-02-15T07:07:25;3.47;;;2.05;;
73898;SDS011;62234;50.892;12.724;2024-02-15T07:09:51;3.08;;;2.10;;
73898;SDS011;62234;50.892;12.724;2024-02-15T07:12:17;3.78;;;1.98;;
73898;SDS011;62234;50.892;12.724;2024-02-15T07:14:45;2.33;;;1.85;;
73898;SDS011;62234;50.892;12.724;2024-02-15T07:17:12;4.60;;;2.63;;
73898;SDS011;62234;50.892;12.724;2024-02-15T07:19:40;4.75;;;2.78;;
73898;SDS011;62234;50.892;12.724;2024-02-15T07:22:06;3.95;;;2.22;;
73898;SDS011;62234;50.892;12.724;2024-02-15T07:24:33;5.28;;;3.05;;
73898;SDS011;62234;50.892;12.724;2024-02-15T07:27:03;4.82;;;2.67;;
73898;SDS011;62234;50.892;12.724;2024-02-15T07:29:29;4.40;;;2.72;;
73898;SDS011;62234;50.892;12.724;2024-02-15T07:31:57;3.60;;;2.67;;
73898;SDS011;62234;50.892;12.724;2024-02-15T07:34:24;2.47;;;2.15;;
73898;SDS011;62234;50.892;12.724;2024-02-15T07:36:51;3.53;;;2.40;;
73898;SDS011;62234;50.892;12.724;2024-02-15T07:39:17;3.45;;;2.17;;
73898;SDS011;62234;50.892;12.724;2024-02-15T07:41:49;3.08;;;2.22;;
73898;SDS011;62234;50.892;12.724;2024-02-15T07:44:15;3.55;;;2.60;;
73898;SDS011;62234;50.892;12.724;2024-02-15T07:46:42;4.20;;;2.63;;
73898;SDS011;62234;50.892;12.724;2024-02-15T07:49:08;4.63;;;2.85;;
73898;SDS011;62234;50.892;12.724;2024-02-15T07:51:34;3.95;;;2.60;;
73898;SDS011;62234;50.892;12.724;2024-02-15T07:54:01;4.22;;;2.42;;
73898;SDS011;62234;50.892;12.724;2024-02-15T07:56:27;5.30;;;2.83;;
73898;SDS011;62234;50.892;12.724;2024-02-15T07:58:53;4.55;;;2.97;;
73898;SDS011;62234;50.892;12.724;2024-02-15T08:01:19;4.50;;;3.17;;
73898;SDS011;62234;50.892;12.724;2024-02-15T08:03:46;5.22;;;2.70;;
73898;SDS011;62234;50.892;12.724;2024-02-15T08:06:12;4.28;;;2.58;;
73898;SDS011;62234;50.892;12.724;2024-02-15T08:08:40;6.07;;;3.10;;
73898;SDS011;62234;50.892;12.724;2024-02-15T08:11:07;3.63;;;2.58;;
73898;SDS011;62234;50.892;12.724;2024-02-15T08:13:42;6.78;;;2.97;;
73898;SDS011;62234;50.892;12.724;2024-02-15T08:16:08;5.63;;;3.33;;
73898;SDS011;62234;50.892;12.724;2024-02-15T08:18:34;5.10;;;2.95;;
73898;SDS011;62234;50.892;12.724;2024-02-15T08:21:00;4.25;;;2.90;;
73898;SDS011;62234;50.892;12.724;2024-02-15T08:23:28;5.18;;;3.08;;
73898;SDS011;62234;50.892;12.724;2024-02-15T08:25:54;5.45;;;2.75;;
73898;SDS011;62234;50.892;12.724;2024-02-15T08:28:20;4.40;;;2.78;;
73898;SDS011;62234;50.892;12.724;2024-02-15T08:30:46;4.25;;;2.83;;
73898;SDS011;62234;50.892;12.724;2024-02-15T08:33:12;4.10;;;2.90;;
73898;SDS011;62234;50.892;12.724;2024-02-15T08:35:38;3.80;;;2.47;;
73898;SDS011;62234;50.892;12.724;2024-02-15T08:38:05;4.55;;;2.80;;
73898;SDS011;62234;50.892;12.724;2024-02-15T08:40:31;3.42;;;2.22;;
73898;SDS011;62234;50.892;12.724;2024-02-15T08:42:57;4.75;;;2.65;;
73898;SDS011;62234;50.892;12.724;2024-02-15T08:45:23;5.45;;;3.40;;
73898;SDS011;62234;50.892;12.724;2024-02-15T08:47:49;3.65;;;2.55;;
73898;SDS011;62234;50.892;12.724;2024-02-15T08:50:18;4.50;;;2.38;;
73898;SDS011;62234;50.892;12.724;2024-02-15T08:52:44;2.95;;;2.40;;
73898;SDS011;62234;50.892;12.724;2024-02-15T08:55:11;3.33;;;2.15;;
73898;SDS011;62234;50.892;12.724;2024-02-15T08:57:39;2.85;;;2.08;;
73898;SDS011;62234;50.892;12.724;2024-02-15T09:00:09;3.17;;;2.65;;
73898;SDS011;62234;50.892;12.724;2024-02-15T09:02:39;2.78;;;2.28;;
73898;SDS011;62234;50.892;12.724;2024-02-15T09:05:05;3.55;;;2.22;;
73898;SDS011;62234;50.892;12.724;2024-02-15T09:07:32;3.83;;;2.03;;
73898;SDS011;62234;50.892;12.724;2024-02-15T09:09:57;5.95;;;2.33;;
73898;SDS011;62234;50.892;12.724;2024-02-15T09:12:23;3.20;;;2.17;;
73898;SDS011;62234;50.892;12.724;2024-02-15T09:14:49;3.20;;;2.03;;
73898;SDS011;62234;50.892;12.724;2024-02-15T09:17:15;3.70;;;2.08;;
73898;SDS011;62234;50.892;12.724;2024-02-15T09:19:41;6.40;;;2.42;;
73898;SDS011;62234;50.892;12.724;2024-02-15T09:22:07;2.65;;;1.92;;
73898;SDS011;62234;50.892;12.724;2024-02-15T09:24:33;2.53;;;2.17;;
73898;SDS011;62234;50.892;12.724;2024-02-15T09:27:00;2.15;;;1.95;;
73898;SDS011;62234;50.892;12.724;2024-02-15T09:29:32;3.15;;;1.90;;
73898;SDS011;62234;50.892;12.724;2024-02-15T09:31:58;5.18;;;2.13;;
73898;SDS011;62234;50.892;12.724;2024-02-15T09:34:27;4.00;;;2.47;;
73898;SDS011;62234;50.892;12.724;2024-02-15T09:36:53;3.65;;;1.90;;
73898;SDS011;62234;50.892;12.724;2024-02-15T09:39:20;4.43;;;2.10;;
73898;SDS011;62234;50.892;12.724;2024-02-15T09:41:47;2.45;;;1.90;;
73898;SDS011;62234;50.892;12.724;2024-02-15T09:44:20;2.28;;;1.80;;
73898;SDS011;62234;50.892;12.724;2024-02-15T09:46:46;2.83;;;2.40;;
73898;SDS011;62234;50.892;12.724;2024-02-15T09:49:13;2.15;;;1.95;;
73898;SDS011;62234;50.892;12.724;2024-02-15T09:51:40;2.72;;;1.90;;
73898;SDS011;62234;50.892;12.724;2024-02-15T09:54:07;3.65;;;2.13;;
73898;SDS011;62234;50.892;12.724;2024-02-15T09:56:34;2.83;;;1.58;;
73898;SDS011;62234;50.892;12.724;2024-02-15T09:59:00;1.63;;;1.50;;
73898;SDS011;62234;50.892;12.724;2024-02-15T10:01:27;1.80;;;1.60;;
73898;SDS011;62234;50.892;12.724;2024-02-15T10:03:57;5.75;;;2.63;;
73898;SDS011;62234;50.892;12.724;2024-02-15T10:06:27;2.53;;;1.75;;
73898;SDS011;62234;50.892;12.724;2024-02-15T10:08:53;3.50;;;2.08;;
73898;SDS011;62234;50.892;12.724;2024-02-15T10:11:19;2.08;;;1.80;;
73898;SDS011;62234;50.892;12.724;2024-02-15T10:13:45;2.78;;;1.98;;
73898;SDS011;62234;50.892;12.724;2024-02-15T10:16:15;2.67;;;2.30;;
73898;SDS011;62234;50.892;12.724;2024-02-15T10:18:42;2.90;;;1.90;;
73898;SDS011;62234;50.892;12.724;2024-02-15T10:21:08;3.10;;;1.80;;
73898;SDS011;62234;50.892;12.724;2024-02-15T10:23:34;3.35;;;2.17;;
73898;SDS011;62234;50.892;12.724;2024-02-15T10:26:00;2.83;;;1.70;;
73898;SDS011;62234;50.892;12.724;2024-02-15T10:28:27;2.28;;;1.60;;
73898;SDS011;62234;50.892;12.724;2024-02-15T10:30:54;3.72;;;1.80;;
73898;SDS011;62234;50.892;12.724;2024-02-15T10:33:25;2.80;;;1.90;;
73898;SDS011;62234;50.892;12.724;2024-02-15T10:36:09;2.30;;;1.98;;
73898;SDS011;62234;50.892;12.724;2024-02-15T10:38:39;2.35;;;1.63;;
73898;SDS011;62234;50.892;12.724;2024-02-15T10:41:05;1.95;;;1.65;;
73898;SDS011;62234;50.892;12.724;2024-02-15T10:43:34;4.22;;;2.33;;
73898;SDS011;62234;50.892;12.724;2024-02-15T10:46:03;2.25;;;1.90;;
73898;SDS011;62234;50.892;12.724;2024-02-15T10:48:29;4.18;;;1.77;;
73898;SDS011;62234;50.892;12.724;2024-02-15T10:50:56;2.85;;;1.83;;
73898;SDS011;62234;50.892;12.724;2024-02-15T10:53:28;2.10;;;1.90;;
73898;SDS011;62234;50.892;12.724;2024-02-15T10:56:01;2.40;;;1.65;;
73898;SDS011;62234;50.892;12.724;2024-02-15T10:58:36;3.53;;;2.17;;
73898;SDS011;62234;50.892;12.724;2024-02-15T11:01:06;2.75;;;1.40;;
73898;SDS011;62234;50.892;12.724;2024-02-15T11:03:35;2.00;;;1.52;;
73898;SDS011;62234;50.892;12.724;2024-02-15T11:06:02;2.45;;;2.20;;
73898;SDS011;62234;50.892;12.724;2024-02-15T11:08:29;2.05;;;1.55;;
73898;SDS011;62234;50.892;12.724;2024-02-15T11:10:57;3.38;;;3.08;;
73898;SDS011;62234;50.892;12.724;2024-02-15T11:13:24;2.78;;;1.70;;
73898;SDS011;62234;50.892;12.724;2024-02-15T11:15:50;4.10;;;2.33;;
73898;SDS011;62234;50.892;12.724;2024-02-15T11:21:03;3.97;;;2.58;;
73898;SDS011;62234;50.892;12.724;2024-02-15T11:23:28;3.08;;;2.20;;
73898;SDS011;62234;50.892;12.724;2024-02-15T11:25:55;2.65;;;1.95;;
73898;SDS011;62234;50.892;12.724;2024-02-15T11:30:53;6.22;;;2.20;;
73898;SDS011;62234;50.892;12.724;2024-02-15T11:33:27;2.60;;;1.48;;
73898;SDS011;62234;50.892;12.724;2024-02-15T11:36:10;2.72;;;2.25;;
73898;SDS011;62234;50.892;12.724;2024-02-15T11:38:36;3.50;;;2.08;;
73898;SDS011;62234;50.892;12.724;2024-02-15T11:41:05;2.78;;;1.75;;
73898;SDS011;62234;50.892;12.724;2024-02-15T11:46:11;1.98;;;1.50;;
73898;SDS011;62234;50.892;12.724;2024-02-15T11:48:41;3.05;;;1.63;;
73898;SDS011;62234;50.892;12.724;2024-02-15T11:51:07;2.50;;;1.60;;
73898;SDS011;62234;50.892;12.724;2024-02-15T11:53:36;2.42;;;1.30;;
73898;SDS011;62234;50.892;12.724;2024-02-15T11:56:02;4.53;;;1.98;;
73898;SDS011;62234;50.892;12.724;2024-02-15T11:58:34;1.80;;;1.67;;
73898;SDS011;62234;50.892;12.724;2024-02-15T12:01:17;1.50;;;1.33;;
73898;SDS011;62234;50.892;12.724;2024-02-15T12:04:21;2.83;;;1.20;;
73898;SDS011;62234;50.892;12.724;2024-02-15T12:07:06;1.33;;;1.02;;
73898;SDS011;62234;50.892;12.724;2024-02-15T12:09:57;2.35;;;1.42;;
73898;SDS011;62234;50.892;12.724;2024-02-15T12:12:50;1.77;;;1.20;;
73898;SDS011;62234;50.892;12.724;2024-02-15T12:15:34;4.20;;;1.83;;
73898;SDS011;62234;50.892;12.724;2024-02-15T12:18:19;5.05;;;1.60;;
73898;SDS011;62234;50.892;12.724;2024-02-15T12:21:03;3.08;;;2.03;;
73898;SDS011;62234;50.892;12.724;2024-02-15T12:23:30;1.60;;;1.25;;
73898;SDS011;62234;50.892;12.724;2024-02-15T12:25:58;2.17;;;1.10;;
73898;SDS011;62234;50.892;12.724;2024-02-15T12:28:24;3.85;;;1.42;;
73898;SDS011;62234;50.892;12.724;2024-02-15T12:30:54;2.85;;;1.50;;
73898;SDS011;62234;50.892;12.724;2024-02-15T12:33:21;1.73;;;1.17;;
73898;SDS011;62234;50.892;12.724;2024-02-15T12:35:47;1.50;;;1.23;;
73898;SDS011;62234;50.892;12.724;2024-02-15T12:38:15;1.52;;;1.10;;
73898;SDS011;62234;50.892;12.724;2024-02-15T12:40:41;2.60;;;1.63;;
73898;SDS011;62234;50.892;12.724;2024-02-15T12:43:09;2.00;;;1.40;;
73898;SDS011;62234;50.892;12.724;2024-02-15T12:45:35;1.52;;;1.42;;
73898;SDS011;62234;50.892;12.724;2024-02-15T12:48:03;1.00;;;0.85;;
73898;SDS011;62234;50.892;12.724;2024-02-15T12:50:30;3.67;;;1.30;;
73898;SDS011;62234;50.892;12.724;2024-02-15T12:52:56;3.53;;;1.10;;
73898;SDS011;62234;50.892;12.724;2024-02-15T12:55:31;3.38;;;1.25;;
73898;SDS011;62234;50.892;12.724;2024-02-15T12:57:59;2.72;;;1.10;;
73898;SDS011;62234;50.892;12.724;2024-02-15T13:00:28;1.33;;;1.10;;
73898;SDS011;62234;50.892;12.724;2024-02-15T13:02:57;3.10;;;1.20;;
73898;SDS011;62234;50.892;12.724;2024-02-15T13:05:24;2.03;;;0.73;;
73898;SDS011;62234;50.892;12.724;2024-02-15T13:07:51;3.97;;;1.17;;
73898;SDS011;62234;50.892;12.724;2024-02-15T13:10:17;1.88;;;1.30;;
73898;SDS011;62234;50.892;12.724;2024-02-15T13:12:44;1.20;;;1.10;;
73898;SDS011;62234;50.892;12.724;2024-02-15T13:15:11;1.73;;;1.00;;
73898;SDS011;62234;50.892;12.724;2024-02-15T13:17:45;1.50;;;1.10;;
73898;SDS011;62234;50.892;12.724;2024-02-15T13:20:13;1.90;;;1.00;;
73898;SDS011;62234;50.892;12.724;2024-02-15T13:22:40;1.23;;;1.13;;
73898;SDS011;62234;50.892;12.724;2024-02-15T13:25:06;1.33;;;1.10;;
73898;SDS011;62234;50.892;12.724;2024-02-15T13:27:34;2.55;;;1.27;;
73898;SDS011;62234;50.892;12.724;2024-02-15T13:30:03;2.25;;;1.27;;
73898;SDS011;62234;50.892;12.724;2024-02-15T13:32:29;3.17;;;1.00;;
73898;SDS011;62234;50.892;12.724;2024-02-15T13:34:55;2.28;;;1.27;;
73898;SDS011;62234;50.892;12.724;2024-02-15T13:37:22;1.70;;;1.60;;
73898;SDS011;62234;50.892;12.724;2024-02-15T13:39:48;1.70;;;1.30;;
73898;SDS011;62234;50.892;12.724;2024-02-15T13:42:15;1.45;;;1.35;;
73898;SDS011;62234;50.892;12.724;2024-02-15T13:44:42;1.52;;;1.42;;
73898;SDS011;62234;50.892;12.724;2024-02-15T13:47:07;1.67;;;1.27;;
73898;SDS011;62234;50.892;12.724;2024-02-15T13:49:33;2.58;;;1.40;;
73898;SDS011;62234;50.892;12.724;2024-02-15T13:52:00;2.20;;;1.40;;
73898;SDS011;62234;50.892;12.724;2024-02-15T13:54:29;3.92;;;1.63;;
73898;SDS011;62234;50.892;12.724;2024-02-15T13:56:56;1.85;;;1.48;;
73898;SDS011;62234;50.892;12.724;2024-02-15T13:59:22;2.42;;;1.65;;
73898;SDS011;62234;50.892;12.724;2024-02-15T14:01:50;2.33;;;1.30;;
73898;SDS011;62234;50.892;12.724;2024-02-15T14:04:18;3.97;;;1.90;;
73898;SDS011;62234;50.892;12.724;2024-02-15T14:06:44;2.05;;;1.33;;
73898;SDS011;62234;50.892;12.724;2024-02-15T14:09:10;1.40;;;1.30;;
73898;SDS011;62234;50.892;12.724;2024-02-15T14:11:37;2.13;;;1.92;;
73898;SDS011;62234;50.892;12.724;2024-02-15T14:14:03;1.35;;;1.25;;
73898;SDS011;62234;50.892;12.724;2024-02-15T14:16:30;2.60;;;1.13;;
73898;SDS011;62234;50.892;12.724;2024-02-15T14:18:56;1.58;;;1.40;;
73898;SDS011;62234;50.892;12.724;2024-02-15T14:21:22;1.98;;;1.40;;
73898;SDS011;62234;50.892;12.724;2024-02-15T14:23:50;4.15;;;1.25;;
73898;SDS011;62234;50.892;12.724;2024-02-15T14:26:16;18.80;;;2.30;;
73898;SDS011;62234;50.892;12.724;2024-02-15T14:28:42;2.20;;;0.90;;
73898;SDS011;62234;50.892;12.724;2024-02-15T14:31:10;1.52;;;1.08;;
73898;SDS011;62234;50.892;12.724;2024-02-15T14:33:55;0.75;;;0.70;;
73898;SDS011;62234;50.892;12.724;2024-02-15T14:36:21;1.40;;;1.10;;
73898;SDS011;62234;50.892;12.724;2024-02-15T14:38:47;0.95;;;0.88;;
73898;SDS011;62234;50.892;12.724;2024-02-15T14:41:13;0.80;;;0.80;;
73898;SDS011;62234;50.892;12.724;2024-02-15T14:43:39;0.88;;;0.88;;